Flight Track Log - Related Links

Times and Time Zones

All times are in EDT time to prevent confusion due to time zone crossing. See the TSO558 flight status page for this flight to view local times or setup timezone preferences in your user account.

Time Position Orientation Groundspeed Altitude Reporting Facility
EDT Latitude Longitude Course Direction KTS MPH feet Rate Location/Type
Thu 07:27:28 PM 33.9170 -118.4610 263° West 1,800  Level FlightAware ADS-B
Thu 07:28:01 PM 33.9140 -118.4990 265° West 191 220 2,700 1,652 Climbing FlightAware ADS-B
Thu 07:28:28 PM 33.9110 -118.5300 263° West 3,500 1,657 Climbing FlightAware ADS-B
Thu 07:28:52 PM 33.9090 -118.5610 266° West 4,000 1,615 Climbing FlightAware ADS-B
Thu 07:29:20 PM 33.9060 -118.6000 265° West 4,700 1,778 Climbing FlightAware ADS-B
Thu 07:29:46 PM 33.9150 -118.6390 286° West 281 323 5,600 2,195 Climbing FlightAware ADS-B
Thu 07:30:01 PM 33.9300 -118.6530 322° Northwest 285 328 6,200 2,533 Climbing FlightAware ADS-B
Thu 07:30:31 PM 33.9630 -118.6790 327° Northwest 288 331 7,500 2,300 Climbing FlightAware ADS-B
Thu 07:31:01 PM 33.9910 -118.7000 328° Northwest 290 334 8,500 320 Climbing FlightAware ADS-B
Thu 07:31:40 PM 34.0460 -118.6950 North 9,000 310 Climbing FlightAware ADS-B
Thu 07:31:56 PM 34.0640 -118.6790 36° Northeast 9,000 306 Level FlightAware ADS-B
Thu 07:32:26 PM 34.1010 -118.6520 31° Northeast 9,100 307 Climbing FlightAware ADS-B
Thu 07:33:07 PM 34.1510 -118.6270 22° Northeast 10,600 308 Climbing FlightAware ADS-B
Thu 07:33:47 PM 34.2030 -118.6100 15° North 12,100 292 Climbing FlightAware ADS-B
Thu 07:34:15 PM 34.2410 -118.6110 359° North 13,200 275 Climbing FlightAware ADS-B
Thu 07:34:58 PM 34.3000 -118.6160 356° North 14,000 263 Climbing FlightAware ADS-B
Thu 07:35:43 PM 34.3640 -118.6450 339° North 14,600 255 Climbing FlightAware ADS-B
Thu 07:36:16 PM 34.4150 -118.6710 337° Northwest 15,100 250 Climbing FlightAware ADS-B
Thu 07:37:15 PM 34.5120 -118.7180 338° Northwest 16,400 245 Climbing FlightAware ADS-B
Thu 07:37:51 PM 34.5700 -118.7460 338° Northwest 17,500 231 Climbing FlightAware ADS-B
Thu 07:38:30 PM 34.6440 -118.7820 338° Northwest 18,700 218 Climbing FlightAware ADS-B
Thu 07:39:11 PM 34.7170 -118.8180 338° Northwest 19,700 204 Climbing FlightAware ADS-B
Thu 07:39:53 PM 34.7960 -118.8550 339° North 20,700 192 Climbing FlightAware ADS-B
Thu 07:40:35 PM 34.8770 -118.8840 344° North 21,700 180 Climbing FlightAware ADS-B
Thu 07:42:12 PM 35.0740 -118.9500 345° North 23,600 168 Climbing FlightAware ADS-B
Thu 07:42:56 PM 35.1700 -118.9830 344° North 24,400 145 Climbing FlightAware ADS-B
Thu 07:43:36 PM 35.2590 -119.0140 344° North 25,200 136 Climbing FlightAware ADS-B
Thu 07:44:15 PM 35.3460 -119.0440 344° North 25,900 125 Climbing FlightAware ADS-B
Thu 07:45:02 PM 35.4500 -119.0780 345° North 26,700 116 Climbing FlightAware ADS-B
Thu 07:45:44 PM 35.5480 -119.0970 351° North 27,300 106 Climbing FlightAware ADS-B
Thu 07:46:26 PM 35.6490 -119.1100 354° North 28,000 98 Climbing FlightAware ADS-B
Thu 07:47:06 PM 35.7440 -119.1220 354° North 28,600 89 Climbing FlightAware ADS-B
Thu 07:47:50 PM 35.8540 -119.1360 354° North 29,300 80 Climbing FlightAware ADS-B
Thu 07:48:32 PM 35.9560 -119.1490 354° North 30,000 71 Climbing FlightAware ADS-B
Thu 07:49:15 PM 36.0610 -119.1630 354° North 30,500 60 Climbing FlightAware ADS-B
Thu 07:49:56 PM 36.1630 -119.1770 354° North 30,900 53 Climbing FlightAware ADS-B
Thu 07:50:33 PM 36.2560 -119.1890 354° North 31,400 48 Climbing FlightAware ADS-B
Thu 07:51:12 PM 36.3550 -119.2020 354° North 32,000 40 Climbing FlightAware ADS-B
Thu 07:51:53 PM 36.4560 -119.2150 354° North 32,500 31 Climbing FlightAware ADS-B
Thu 07:52:37 PM 36.5660 -119.2300 354° North 33,100 23 Climbing FlightAware ADS-B
Thu 07:53:16 PM 36.6650 -119.2430 354° North 33,500 13 Climbing FlightAware ADS-B
Thu 07:54:00 PM 36.7750 -119.2580 354° North 34,000 Climbing FlightAware ADS-B
Thu 07:54:44 PM 36.8870 -119.2740 353° North 34,000 -2 Level FlightAware ADS-B
Thu 07:55:17 PM 36.9690 -119.2850 354° North 34,000 -2 Level FlightAware ADS-B
Thu 07:56:01 PM 37.0790 -119.3000 354° North 34,000 -2 Level FlightAware ADS-B
Thu 07:56:43 PM 37.1890 -119.3150 354° North 34,000 -2 Level FlightAware ADS-B
Thu 07:57:18 PM 37.2790 -119.3280 353° North 34,000 -2 Level FlightAware ADS-B
Thu 07:58:01 PM 37.3850 -119.3420 354° North 34,000 -2 Level FlightAware ADS-B
Thu 07:58:40 PM 37.4840 -119.3560 354° North 34,000 -2 Level FlightAware ADS-B
Thu 07:59:24 PM 37.6010 -119.3730 353° North 34,000 -2 Level FlightAware ADS-B
Thu 08:00:16 PM 37.7330 -119.3910 354° North 34,000 -2 Level FlightAware ADS-B
Thu 08:01:02 PM 37.8510 -119.4080 354° North 34,000 -2 Level FlightAware ADS-B
Thu 08:01:42 PM 37.9540 -119.4230 353° North 34,000 -2 Level FlightAware ADS-B
Thu 08:02:18 PM 38.0450 -119.4360 354° North 34,000 -2 Level FlightAware ADS-B
Thu 08:02:58 PM 38.1470 -119.4510 353° North 34,000 -2 Level FlightAware ADS-B
Thu 08:03:39 PM 38.2510 -119.4640 354° North 34,000 -2 Level FlightAware ADS-B
Thu 08:04:18 PM 38.3520 -119.4590 North 34,000 -2 Level FlightAware ADS-B
Thu 08:04:58 PM 38.4580 -119.4280 13° North 34,000 -2 Level FlightAware ADS-B
Thu 08:05:42 PM 38.5690 -119.3880 16° North 34,000 -2 Level FlightAware ADS-B
Thu 08:06:22 PM 38.6700 -119.3530 15° North 34,000 -2 Level FlightAware ADS-B
Thu 08:07:04 PM 38.7770 -119.3140 16° North 34,000 -2 Level FlightAware ADS-B
Thu 08:07:48 PM 38.8910 -119.2730 16° North 34,000 -2 Level FlightAware ADS-B
Thu 08:08:26 PM 38.9880 -119.2390 15° North 34,000 -2 Level FlightAware ADS-B
Thu 08:09:08 PM 39.0940 -119.2010 16° North 34,000 -2 Level FlightAware ADS-B
Thu 08:09:52 PM 39.2080 -119.1590 16° North 34,000 -2 Level FlightAware ADS-B
Thu 08:10:34 PM 39.3150 -119.1200 16° North 34,000 -2 Level FlightAware ADS-B
Thu 08:11:32 PM 39.4630 -119.0670 15° North 34,000 -2 Level FlightAware ADS-B
Thu 08:12:08 PM 39.5560 -119.0330 16° North 34,000 -2 Level FlightAware ADS-B
Thu 08:12:48 PM 39.6590 -118.9950 16° North 34,000 -2 Level FlightAware ADS-B
Thu 08:13:29 PM 39.7620 -118.9580 15° North 34,000 -2 Level FlightAware ADS-B
Thu 08:14:06 PM 39.8580 -118.9220 16° North 34,000 -3 Level FlightAware ADS-B
Thu 08:14:48 PM 39.9670 -118.8820 16° North 34,000 -3 Level FlightAware ADS-B
Thu 08:15:30 PM 40.0760 -118.8420 16° North 34,000 -3 Level FlightAware ADS-B
Thu 08:16:09 PM 40.1740 -118.8050 16° North 34,000 -3 Level FlightAware ADS-B
Thu 08:16:45 PM 40.2610 -118.7730 16° North 34,000 -3 Level FlightAware ADS-B
Thu 08:17:25 PM 40.3730 -118.7310 16° North 34,000 -3 Level FlightAware ADS-B
Thu 08:18:05 PM 40.4710 -118.6940 16° North 34,000 -3 Level FlightAware ADS-B
Thu 08:18:48 PM 40.5780 -118.6540 16° North 34,000 -3 Level FlightAware ADS-B
Thu 08:19:28 PM 40.6860 -118.6130 16° North 34,000 -3 Level FlightAware ADS-B
Thu 08:20:10 PM 40.7940 -118.5720 16° North 34,000 -3 Level FlightAware ADS-B
Thu 08:20:50 PM 40.8910 -118.5350 16° North 34,000 -3 Level FlightAware ADS-B
Thu 08:24:08 PM 41.4150 -118.3330 16° North 34,000 -3 Level FlightAware ADS-B
Thu 08:24:53 PM 41.5440 -118.2830 16° North 34,000 -3 Level FlightAware ADS-B
Thu 08:25:39 PM 41.6680 -118.2340 16° North 34,000 -4 Level FlightAware ADS-B
Thu 08:26:19 PM 41.7730 -118.1930 16° North 34,000 -4 Level FlightAware ADS-B
Thu 08:27:03 PM 41.8880 -118.1470 17° North 34,000 -4 Level FlightAware ADS-B
Thu 08:27:41 PM 41.9890 -118.1070 16° North 34,000 -4 Level FlightAware ADS-B
Thu 08:28:27 PM 42.1110 -118.0590 16° North 34,000 -4 Level FlightAware ADS-B
Thu 08:29:09 PM 42.2230 -118.0140 17° North 34,000 -4 Level FlightAware ADS-B
Thu 08:29:51 PM 42.3340 -117.9690 17° North 34,000 -4 Level FlightAware ADS-B
Thu 08:30:31 PM 42.4410 -117.9260 17° North 34,000 -4 Level FlightAware ADS-B
Thu 08:31:16 PM 42.5570 -117.8790 17° North 34,000 -4 Level FlightAware ADS-B
Thu 08:31:57 PM 42.6690 -117.8320 17° North 34,000 -5 Level FlightAware ADS-B
Thu 08:32:41 PM 42.7860 -117.7830 17° North 34,000 -5 Level FlightAware ADS-B
Thu 08:33:21 PM 42.8920 -117.7380 17° North 34,000 -5 Level FlightAware ADS-B
Thu 08:34:01 PM 42.9970 -117.6930 17° North 34,000 -5 Level FlightAware ADS-B
Thu 08:34:43 PM 43.1070 -117.6460 17° North 34,000 -5 Level FlightAware ADS-B
Thu 08:35:21 PM 43.2080 -117.6030 17° North 34,000 -5 Level FlightAware ADS-B
Thu 08:36:01 PM 43.3140 -117.5570 18° North 34,000 -6 Level FlightAware ADS-B
Thu 08:36:43 PM 43.4250 -117.5090 17° North 34,000 -6 Level FlightAware ADS-B
Thu 08:37:21 PM 43.5260 -117.4660 17° North 34,000 -6 Level FlightAware ADS-B
Thu 08:38:01 PM 43.6320 -117.4190 18° North 34,000 -6 Level FlightAware ADS-B
Thu 08:38:41 PM 43.7390 -117.3720 18° North 34,000 -7 Level FlightAware ADS-B
Thu 08:39:24 PM 43.8530 -117.3220 18° North 34,000 -7 Level FlightAware ADS-B
Thu 08:40:08 PM 43.9730 -117.2690 18° North 34,000 -7 Level FlightAware ADS-B
Thu 08:40:50 PM 44.0830 -117.2210 17° North 34,000 -8 Level FlightAware ADS-B
Thu 08:41:32 PM 44.1950 -117.1710 18° North 34,000 -8 Level FlightAware ADS-B
Thu 08:42:09 PM 44.2940 -117.1270 18° North 34,000 -9 Level FlightAware ADS-B
Thu 08:42:47 PM 44.3960 -117.0810 18° North 34,000 -9 Level FlightAware ADS-B
Thu 08:43:32 PM 44.5180 -117.0260 18° North 34,000 -10 Level FlightAware ADS-B
Thu 08:44:08 PM 44.6150 -116.9820 18° North 34,000 -11 Level FlightAware ADS-B
Thu 08:44:48 PM 44.7220 -116.9330 18° North 34,000 -11 Level FlightAware ADS-B
Thu 08:45:28 PM 44.8300 -116.8840 18° North 34,000 -12 Level FlightAware ADS-B
Thu 08:46:08 PM 44.9380 -116.8350 18° North 34,000 -13 Level FlightAware ADS-B
Thu 08:46:52 PM 45.0570 -116.7800 18° North 34,000 -14 Level FlightAware ADS-B
Thu 08:47:36 PM 45.1740 -116.7260 18° North 34,000 -16 Level FlightAware ADS-B
Thu 08:48:14 PM 45.2780 -116.6780 18° North 34,000 -18 Level FlightAware ADS-B
Thu 08:48:57 PM 45.3900 -116.6250 18° North 34,000 -21 Level FlightAware ADS-B
Thu 08:49:42 PM 45.5160 -116.5670 18° North 34,000 -24 Level FlightAware ADS-B
Thu 08:50:22 PM 45.6210 -116.5170 18° North 34,000 -30 Level FlightAware ADS-B
Thu 08:51:07 PM 45.7420 -116.4600 18° North 34,000 -38 Level FlightAware ADS-B
Thu 08:51:46 PM 45.8490 -116.4100 18° North 34,000 -52 Level FlightAware ADS-B
Thu 08:52:30 PM 45.9670 -116.3530 19° North 34,000 -79 Level FlightAware ADS-B
Thu 08:53:02 PM 46.0514 -116.3281 19° North 617 710 33,900 -65 Descending Seattle Center
Thu 08:54:03 PM 46.2119 -116.2539 18° North 611 703 33,900  Level Seattle Center
Thu 08:55:05 PM 46.3722 -116.1778 18° North 610 702 33,900 49 Level Seattle Center
Thu 08:56:06 PM 46.5319 -116.0994 19° North 610 702 34,000  Climbing Seattle Center
Thu 08:57:07 PM 46.6925 -116.0233 18° North 610 702 33,900  Descending Seattle Center
Thu 08:58:08 PM 46.8853 -115.9275 19° North 614 707 34,000 49 Climbing Seattle Center
Thu 08:59:09 PM 47.0456 -115.8489 18° North 612 704 34,000 -49 Level Seattle Center
Thu 09:00:10 PM 47.2058 -115.7703 18° North 611 703 33,900 -49 Descending Seattle Center
Thu 09:01:11 PM 47.3642 -115.6917 19° North 615 708 33,900 49 Level Seattle Center
Thu 09:02:12 PM 47.5267 -115.6117 18° North 616 709 34,000 31 Climbing Seattle Center
Thu 09:08:12 PM 48.4980 -115.1450 18° North 34,000 29 Level FlightAware ADS-B
Thu 09:08:56 PM 48.6170 -115.0900 17° North 34,000 35 Level FlightAware ADS-B
Thu 09:09:37 PM 48.7230 -115.0400 17° North 34,000 36 Level FlightAware ADS-B
Thu 09:10:17 PM 48.8310 -114.9880 18° North 34,000 37 Level FlightAware ADS-B
Thu 09:11:03 PM 48.9470 -114.9340 17° North 34,000 38 Level FlightAware ADS-B
Thu 09:11:44 PM 49.0590 -114.8800 18° North 34,000 39 Level FlightAware ADS-B
Thu 09:12:24 PM 49.1660 -114.8290 17° North 34,000 40 Level FlightAware ADS-B
Thu 09:13:10 PM 49.2800 -114.7740 17° North 34,000 41 Level FlightAware ADS-B
Thu 09:13:49 PM 49.3840 -114.7250 17° North 34,200 43 Climbing FlightAware ADS-B
Thu 09:14:30 PM 49.4810 -114.6790 17° North 34,500 35 Climbing FlightAware ADS-B
Thu 09:15:10 PM 49.5940 -114.6250 17° North 35,000 23 Climbing FlightAware ADS-B
Thu 09:15:56 PM 49.7180 -114.5670 17° North 35,000  Level FlightAware ADS-B
Thu 09:16:37 PM 49.8230 -114.5160 17° North 35,000  Level FlightAware ADS-B
Thu 09:17:22 PM 49.9350 -114.4620 17° North 35,000  Level FlightAware ADS-B
Thu 09:18:02 PM 50.0420 -114.4100 17° North 35,000  Level FlightAware ADS-B
Thu 09:18:47 PM 50.1570 -114.3540 17° North 35,000  Level FlightAware ADS-B
Thu 09:19:18 PM 50.2300 -114.3180 18° North 35,000  Level FlightAware ADS-B
Thu 09:20:03 PM 50.3360 -114.2660 17° North 35,000  Level FlightAware ADS-B
Thu 09:20:43 PM 50.4330 -114.2180 17° North 35,000  Level FlightAware ADS-B
Thu 09:21:19 PM 50.5230 -114.1740 17° North 35,000  Level FlightAware ADS-B
Thu 09:21:59 PM 50.6180 -114.1260 18° North 35,000  Level FlightAware ADS-B
Thu 09:22:44 PM 50.7310 -114.0700 17° North 35,000  Level FlightAware ADS-B
Thu 09:23:24 PM 50.8290 -114.0210 18° North 35,000  Level FlightAware ADS-B
Thu 09:24:04 PM 50.9290 -113.9710 17° North 35,000  Level FlightAware ADS-B
Thu 09:24:49 PM 51.0380 -113.9160 18° North 35,000  Level FlightAware ADS-B
Thu 09:25:30 PM 51.1430 -113.8620 18° North 35,000  Level FlightAware ADS-B
Thu 09:26:10 PM 51.2450 -113.8100 18° North 35,000  Level FlightAware ADS-B
Thu 09:26:50 PM 51.3430 -113.7600 18° North 35,000  Level FlightAware ADS-B
Thu 09:27:35 PM 51.4560 -113.7020 18° North 35,000  Level FlightAware ADS-B
Thu 09:28:15 PM 51.5550 -113.6510 18° North 35,000  Level FlightAware ADS-B
Thu 09:29:00 PM 51.6670 -113.5920 18° North 35,000  Level FlightAware ADS-B
Thu 09:29:40 PM 51.7670 -113.5400 18° North 35,000  Level FlightAware ADS-B
Thu 09:30:25 PM 51.8790 -113.4820 18° North 35,000  Level FlightAware ADS-B
Thu 09:31:05 PM 51.9810 -113.4280 18° North 35,000  Level FlightAware ADS-B
Thu 09:31:45 PM 52.0790 -113.3760 18° North 35,000  Level FlightAware ADS-B
Thu 09:32:30 PM 52.1940 -113.3150 18° North 35,000  Level FlightAware ADS-B
Thu 09:33:06 PM 52.2810 -113.2680 18° North 35,000  Level FlightAware ADS-B
Thu 09:33:50 PM 52.3950 -113.2070 18° North 35,000  Level FlightAware ADS-B
Thu 09:34:31 PM 52.4940 -113.1530 18° North 35,000  Level FlightAware ADS-B
Thu 09:35:05 PM 52.5770 -113.1080 18° North 35,000  Level FlightAware ADS-B
Thu 09:35:45 PM 52.6770 -113.0540 18° North 35,000  Level FlightAware ADS-B
Thu 09:36:40 PM 52.8150 -112.9780 18° North 494 568 35,000  Level FlightAware ADS-B
Thu 09:37:00 PM 52.8550 -112.9570 18° North 35,000  Level FlightAware ADS-B
Thu 09:37:30 PM 52.9320 -112.9140 19° North 35,000  Level FlightAware ADS-B
Thu 09:38:00 PM 53.0140 -112.8680 19° North 491 565 35,000  Level FlightAware ADS-B
Thu 09:38:40 PM 53.1130 -112.8130 18° North 493 567 35,000  Level FlightAware ADS-B
Thu 09:39:20 PM 53.2070 -112.7610 18° North 491 565 35,000  Level FlightAware ADS-B
Thu 09:40:00 PM 53.3060 -112.7050 19° North 490 564 35,000  Level FlightAware ADS-B
Thu 09:40:20 PM 53.3480 -112.6820 18° North 35,000  Level FlightAware ADS-B
Thu 09:41:00 PM 53.4530 -112.6230 18° North 490 564 35,000  Level FlightAware ADS-B
Thu 09:42:05 PM 53.6160 -112.5300 19° North 489 563 35,000  Level FlightAware ADS-B
Thu 09:42:45 PM 53.7060 -112.4780 19° North 492 566 35,000  Level FlightAware ADS-B
Thu 09:43:25 PM 53.8080 -112.4190 19° North 494 568 35,000  Level FlightAware ADS-B
Thu 09:44:05 PM 53.9030 -112.3640 19° North 493 567 35,000  Level FlightAware ADS-B
Thu 09:44:45 PM 54.0010 -112.3070 19° North 493 567 35,000  Level FlightAware ADS-B
Thu 09:45:55 PM 54.1800 -112.2020 19° North 496 571 35,000  Level FlightAware ADS-B
Thu 09:46:55 PM 54.3210 -112.1180 19° North 492 566 35,000  Level FlightAware ADS-B
Thu 09:47:35 PM 54.4240 -112.0570 19° North 496 571 35,000  Level FlightAware ADS-B
Thu 09:48:15 PM 54.5160 -112.0020 19° North 497 572 35,000  Level FlightAware ADS-B
Thu 09:49:20 PM 54.6790 -111.9040 19° North 496 571 35,000  Level FlightAware ADS-B
Thu 09:50:00 PM 54.7700 -111.8480 20° North 501 577 35,000  Level FlightAware ADS-B
Thu 09:50:37 PM 54.8430 -111.8530 358° North 501 577 35,000  Level FlightAware ADS-B
Thu 09:51:37 PM 54.9610 -111.8600 358° North 501 577 35,000  Level FlightAware ADS-B
Thu 09:52:13 PM 55.0320 -111.8640 358° North 501 577 35,000  Level FlightAware ADS-B
Thu 09:53:01 PM 55.1260 -111.8700 358° North 501 577 35,000  Level FlightAware ADS-B
Thu 09:53:25 PM 55.1740 -111.8730 358° North 501 577 35,000  Level FlightAware ADS-B
Thu 09:54:15 PM 55.3850 -111.4670 47° Northeast 35,000  Level FlightAware ADS-B
Thu 09:54:59 PM 55.5000 -111.4333 47° Northeast 540 621 35,000  Level Edmonton Center
Thu 09:55:59 PM 55.6333 -111.3333 23° Northeast 540 621 35,000  Level Edmonton Center
Thu 09:56:59 PM 55.7833 -111.2333 21° North 540 621 35,000  Level Edmonton Center
Thu 09:57:59 PM 55.9167 -111.1333 23° Northeast 540 621 35,000  Level Edmonton Center
Thu 09:58:59 PM 56.0833 -111.0500 16° North 530 610 35,000  Level Edmonton Center
Thu 09:59:59 PM 56.2000 -110.9667 22° Northeast 530 610 35,000  Level Edmonton Center
Thu 10:00:59 PM 56.3333 -110.8667 23° Northeast 520 598 35,000  Level Edmonton Center
Thu 10:01:59 PM 56.4833 -110.7667 20° North 520 598 35,000  Level Edmonton Center
Thu 10:02:59 PM 56.6167 -110.7000 15° North 520 598 35,000  Level Edmonton Center
Thu 10:03:59 PM 56.7667 -110.6000 20° North 520 598 35,000  Level Edmonton Center
Thu 10:04:59 PM 56.9000 -110.5000 22° Northeast 530 610 35,000  Level Edmonton Center
Thu 10:05:59 PM 57.0167 -110.3833 29° Northeast 530 610 35,000  Level Edmonton Center
Thu 10:06:59 PM 57.1833 -110.3167 12° North 530 610 35,000  Level Edmonton Center
Thu 10:07:59 PM 57.3000 -110.2000 28° Northeast 520 598 35,000  Level Edmonton Center
Thu 10:08:59 PM 57.4667 -110.1000 18° North 530 610 35,000  Level Edmonton Center
Thu 10:09:59 PM 57.5833 -110.0000 25° Northeast 530 610 35,000  Level Edmonton Center
Thu 10:10:59 PM 57.7167 -109.9167 18° North 530 610 35,000  Level Edmonton Center
Thu 10:11:59 PM 57.8667 -109.8167 20° North 530 610 35,000  Level Edmonton Center
Thu 10:12:59 PM 58.0000 -109.7000 25° Northeast 530 610 35,000  Level Edmonton Center
Thu 10:13:59 PM 58.1500 -109.5833 22° Northeast 530 610 35,000  Level Edmonton Center
Thu 10:14:59 PM 58.2833 -109.4833 22° Northeast 520 598 35,000  Level Edmonton Center
Thu 10:15:59 PM 58.4167 -109.4000 18° North 530 610 35,000  Level Edmonton Center
Thu 10:16:59 PM 58.5667 -109.2833 22° Northeast 530 610 35,000  Level Edmonton Center
Thu 10:17:59 PM 58.7000 -109.1833 21° North 520 598 35,000  Level Edmonton Center
Thu 10:18:59 PM 58.8333 -109.1000 18° North 520 598 35,000  Level Edmonton Center
Thu 10:19:59 PM 58.9833 -108.9833 22° Northeast 520 598 35,000  Level Edmonton Center
Thu 10:20:59 PM 59.1000 -108.8667 27° Northeast 520 598 35,000  Level Edmonton Center
Thu 10:21:59 PM 59.2333 -108.7833 18° North 520 598 35,000  Level Edmonton Center
Thu 10:22:59 PM 59.3833 -108.6667 22° Northeast 520 598 35,000  Level Edmonton Center
Thu 10:23:59 PM 59.5167 -108.5333 27° Northeast 520 598 35,000  Level Edmonton Center
Thu 10:24:59 PM 59.6667 -108.4167 21° North 510 587 35,000  Level Edmonton Center
Thu 10:25:59 PM 59.7833 -108.3000 27° Northeast 510 587 35,000  Level Edmonton Center
Thu 10:26:59 PM 59.9000 -108.1333 36° Northeast 520 598 35,000  Level Edmonton Center
Thu 10:27:59 PM 60.0500 -108.0167 21° North 520 598 35,000  Level Edmonton Center
Thu 10:28:59 PM 60.1667 -107.8500 35° Northeast 520 598 35,000  Level Edmonton Center
Thu 10:29:59 PM 60.3000 -107.7333 23° Northeast 520 598 35,000  Level Edmonton Center
Thu 10:30:59 PM 60.4167 -107.6000 29° Northeast 520 598 35,000  Level Edmonton Center
Thu 10:31:59 PM 60.5667 -107.4500 26° Northeast 520 598 35,000  Level Edmonton Center
Thu 10:32:59 PM 60.6833 -107.3167 29° Northeast 520 598 35,000  Level Edmonton Center
Thu 10:33:59 PM 60.8000 -107.1833 29° Northeast 520 598 35,000  Level Edmonton Center
Thu 10:34:59 PM 60.9500 -107.0167 28° Northeast 520 598 35,000  Level Edmonton Center
Thu 10:35:59 PM 61.0667 -106.8833 29° Northeast 520 598 35,000  Level Edmonton Center
Thu 10:36:59 PM 61.2000 -106.7500 26° Northeast 520 598 35,000  Level Edmonton Center
Thu 10:37:59 PM 61.3167 -106.5833 34° Northeast 520 598 35,000  Level Edmonton Center
Thu 10:38:59 PM 61.4667 -106.4500 23° Northeast 520 598 35,000  Level Edmonton Center
Thu 10:39:59 PM 61.5833 -106.2833 34° Northeast 520 598 35,000  Level Edmonton Center
Thu 10:40:59 PM 61.7167 -106.1333 28° Northeast 520 598 35,000  Level Edmonton Center
Thu 10:41:59 PM 61.8500 -105.9667 31° Northeast 520 598 35,000  Level Edmonton Center
Thu 10:42:59 PM 61.9667 -105.8167 31° Northeast 520 598 35,000  Level Edmonton Center
Thu 10:43:59 PM 62.1167 -105.6833 23° Northeast 520 598 35,000  Level Edmonton Center
Thu 10:44:59 PM 62.2333 -105.5000 36° Northeast 530 610 35,000  Level Edmonton Center
Thu 10:45:59 PM 62.3667 -105.3500 28° Northeast 520 598 35,000  Level Edmonton Center
Thu 10:46:59 PM 62.4833 -105.1833 33° Northeast 520 598 35,000  Level Edmonton Center
Thu 10:47:59 PM 62.6167 -105.0333 27° Northeast 520 598 35,000  Level Edmonton Center
Thu 10:48:59 PM 62.7333 -104.8833 30° Northeast 520 598 35,000  Level Edmonton Center
Thu 10:49:59 PM 62.8500 -104.7000 36° Northeast 520 598 35,000 Level Edmonton Center
Thu 10:52:00 PM 63.1132 -104.4711 21° North  Level FlightAware Approximate
Thu 10:59:00 PM 64.0238 -103.6432 22° Northeast  Level FlightAware Approximate
Thu 11:00:00 PM 64.1535 -103.5205 22° Northeast  Level FlightAware Approximate
Thu 11:01:00 PM 64.2831 -103.3967 23° Northeast  Level FlightAware Approximate
Thu 11:02:00 PM 64.4126 -103.2717 23° Northeast  Level FlightAware Approximate
Thu 11:03:00 PM 64.5419 -103.1455 23° Northeast  Level FlightAware Approximate
Thu 11:04:00 PM 64.6712 -103.0182 23° Northeast  Level FlightAware Approximate
Thu 11:05:00 PM 64.8003 -102.8895 23° Northeast  Level FlightAware Approximate
Thu 11:06:00 PM 64.9294 -102.7597 23° Northeast  Level FlightAware Approximate
Thu 11:07:00 PM 65.0583 -102.6286 23° Northeast  Level FlightAware Approximate
Thu 11:08:00 PM 65.1871 -102.4962 23° Northeast  Level FlightAware Approximate
Thu 11:09:00 PM 65.3158 -102.3626 23° Northeast  Level FlightAware Approximate
Thu 11:10:00 PM 65.4444 -102.2276 24° Northeast  Level FlightAware Approximate
Thu 11:11:00 PM 65.5712 -102.0835 29° Northeast  Level FlightAware Approximate
Thu 11:12:00 PM 65.6944 -101.9205 29° Northeast  Level FlightAware Approximate
Thu 11:13:00 PM 65.8174 -101.7560 29° Northeast  Level FlightAware Approximate
Thu 11:14:00 PM 65.9402 -101.5898 29° Northeast  Level FlightAware Approximate
Thu 11:15:00 PM 66.0628 -101.4221 29° Northeast  Level FlightAware Approximate
Thu 11:16:00 PM 66.1853 -101.2527 29° Northeast  Level FlightAware Approximate
Thu 11:17:00 PM 66.3075 -101.0817 29° Northeast  Level FlightAware Approximate
Thu 11:18:00 PM 66.4296 -100.9090 29° Northeast  Level FlightAware Approximate
Thu 11:19:00 PM 66.5515 -100.7346 30° Northeast  Level FlightAware Approximate
Thu 11:20:00 PM 66.6732 -100.5585 30° Northeast  Level FlightAware Approximate
Thu 11:21:00 PM 66.7946 -100.3806 30° Northeast  Level FlightAware Approximate
Thu 11:22:00 PM 66.9159 -100.2010 30° Northeast  Level FlightAware Approximate
Thu 11:23:00 PM 67.0370 -100.0196 30° Northeast  Level FlightAware Approximate
Thu 11:24:00 PM 67.1578 -99.8363 30° Northeast  Level FlightAware Approximate
Thu 11:25:00 PM 67.2785 -99.6512 31° Northeast  Level FlightAware Approximate
Thu 11:26:00 PM 67.3989 -99.4642 31° Northeast  Level FlightAware Approximate
Thu 11:27:00 PM 67.5191 -99.2753 31° Northeast  Level FlightAware Approximate
Thu 11:28:00 PM 67.6391 -99.0845 31° Northeast  Level FlightAware Approximate
Thu 11:29:00 PM 67.7588 -98.8917 31° Northeast  Level FlightAware Approximate
Thu 11:30:00 PM 67.8784 -98.6970 32° Northeast  Level FlightAware Approximate
Thu 11:31:00 PM 67.9977 -98.5002 32° Northeast  Level FlightAware Approximate
Thu 11:32:00 PM 68.1167 -98.3014 32° Northeast  Level FlightAware Approximate
Thu 11:33:00 PM 68.2355 -98.1005 32° Northeast  Level FlightAware Approximate
Thu 11:34:00 PM 68.3541 -97.8976 32° Northeast  Level FlightAware Approximate
Thu 11:35:00 PM 68.4724 -97.6925 32° Northeast  Level FlightAware Approximate
Thu 11:36:00 PM 68.5905 -97.4853 33° Northeast  Level FlightAware Approximate
Thu 11:37:00 PM 68.7083 -97.2758 33° Northeast  Level FlightAware Approximate
Thu 11:38:00 PM 68.8259 -97.0642 33° Northeast  Level FlightAware Approximate
Thu 11:39:00 PM 68.9431 -96.8503 33° Northeast  Level FlightAware Approximate
Thu 11:40:00 PM 69.0601 -96.6341 33° Northeast  Level FlightAware Approximate
Thu 11:41:00 PM 69.1769 -96.4156 34° Northeast  Level FlightAware Approximate
Thu 11:42:00 PM 69.2933 -96.1948 34° Northeast  Level FlightAware Approximate
Thu 11:43:00 PM 69.4095 -95.9715 34° Northeast  Level FlightAware Approximate
Thu 11:44:00 PM 69.5254 -95.7459 34° Northeast  Level FlightAware Approximate
Thu 11:45:00 PM 69.6410 -95.5178 34° Northeast  Level FlightAware Approximate
Thu 11:46:00 PM 69.7563 -95.2872 35° Northeast  Level FlightAware Approximate
Thu 11:47:00 PM 69.8712 -95.0541 35° Northeast  Level FlightAware Approximate
Thu 11:48:00 PM 69.9859 -94.8184 35° Northeast  Level FlightAware Approximate
Thu 11:49:00 PM 70.1003 -94.5801 35° Northeast  Level FlightAware Approximate
Thu 11:50:00 PM 70.2143 -94.3392 36° Northeast  Level FlightAware Approximate
Thu 11:51:00 PM 70.3280 -94.0956 36° Northeast  Level FlightAware Approximate
Thu 11:52:00 PM 70.4414 -93.8492 36° Northeast  Level FlightAware Approximate
Thu 11:53:00 PM 70.5545 -93.6002 36° Northeast  Level FlightAware Approximate
Thu 11:54:00 PM 70.6672 -93.3483 36° Northeast  Level FlightAware Approximate
Thu 11:55:00 PM 70.7795 -93.0936 37° Northeast  Level FlightAware Approximate
Thu 11:56:00 PM 70.8915 -92.8360 37° Northeast  Level FlightAware Approximate
Thu 11:57:00 PM 71.0031 -92.5755 37° Northeast  Level FlightAware Approximate
Thu 11:58:00 PM 71.1144 -92.3120 37° Northeast  Level FlightAware Approximate
Thu 11:59:00 PM 71.2253 -92.0456 38° Northeast  Level FlightAware Approximate
Fri 12:00:00 AM 71.3358 -91.7761 38° Northeast  Level FlightAware Approximate
Fri 12:01:00 AM 71.4459 -91.5035 38° Northeast  Level FlightAware Approximate
Fri 12:02:00 AM 71.5556 -91.2278 38° Northeast  Level FlightAware Approximate
Fri 12:03:00 AM 71.6649 -90.9488 39° Northeast  Level FlightAware Approximate
Fri 12:04:00 AM 71.7738 -90.6667 39° Northeast  Level FlightAware Approximate
Fri 12:05:00 AM 71.8823 -90.3813 39° Northeast  Level FlightAware Approximate
Fri 12:06:00 AM 71.9904 -90.0926 40° Northeast  Level FlightAware Approximate
Fri 12:07:00 AM 72.0980 -89.8006 40° Northeast  Level FlightAware Approximate
Fri 12:08:00 AM 72.2053 -89.5052 40° Northeast  Level FlightAware Approximate
Fri 12:09:00 AM 72.3120 -89.2063 40° Northeast  Level FlightAware Approximate
Fri 12:10:00 AM 72.4183 -88.9040 41° Northeast  Level FlightAware Approximate
Fri 12:11:00 AM 72.5241 -88.5979 41° Northeast  Level FlightAware Approximate
Fri 12:12:00 AM 72.6294 -88.2880 41° Northeast  Level FlightAware Approximate
Fri 12:13:00 AM 72.7342 -87.9744 42° Northeast  Level FlightAware Approximate
Fri 12:14:00 AM 72.8385 -87.6572 42° Northeast  Level FlightAware Approximate
Fri 12:15:00 AM 72.9423 -87.3362 42° Northeast  Level FlightAware Approximate
Fri 12:16:00 AM 73.0456 -87.0114 42° Northeast  Level FlightAware Approximate
Fri 12:17:00 AM 73.1484 -86.6827 43° Northeast  Level FlightAware Approximate
Fri 12:18:00 AM 73.2506 -86.3501 43° Northeast  Level FlightAware Approximate
Fri 12:19:00 AM 73.3523 -86.0136 43° Northeast  Level FlightAware Approximate
Fri 12:20:00 AM 73.4535 -85.6730 44° Northeast  Level FlightAware Approximate
Fri 12:21:00 AM 73.5540 -85.3285 44° Northeast  Level FlightAware Approximate
Fri 12:22:00 AM 73.6541 -84.9797 44° Northeast  Level FlightAware Approximate
Fri 12:23:00 AM 73.7535 -84.6269 45° Northeast  Level FlightAware Approximate
Fri 12:24:00 AM 73.8523 -84.2698 45° Northeast  Level FlightAware Approximate
Fri 12:25:00 AM 73.9506 -83.9084 45° Northeast  Level FlightAware Approximate
Fri 12:26:00 AM 74.0482 -83.5427 46° Northeast  Level FlightAware Approximate
Fri 12:27:00 AM 74.1452 -83.1727 46° Northeast  Level FlightAware Approximate
Fri 12:28:00 AM 74.2416 -82.7982 46° Northeast  Level FlightAware Approximate
Fri 12:29:00 AM 74.3373 -82.4193 47° Northeast  Level FlightAware Approximate
Fri 12:30:00 AM 74.4324 -82.0358 47° Northeast  Level FlightAware Approximate
Fri 12:31:00 AM 74.5268 -81.6477 48° Northeast  Level FlightAware Approximate
Fri 12:32:00 AM 74.6205 -81.2550 48° Northeast  Level FlightAware Approximate
Fri 12:33:00 AM 74.7135 -80.8577 48° Northeast  Level FlightAware Approximate
Fri 12:34:00 AM 74.8058 -80.4556 49° Northeast  Level FlightAware Approximate
Fri 12:35:00 AM 74.8974 -80.0487 49° Northeast  Level FlightAware Approximate
Fri 12:36:00 AM 74.9883 -79.6370 49° Northeast  Level FlightAware Approximate
Fri 12:37:00 AM 75.0784 -79.2204 50° Northeast  Level FlightAware Approximate
Fri 12:38:00 AM 75.1677 -78.7989 50° Northeast  Level FlightAware Approximate
Fri 12:39:00 AM 75.2563 -78.3724 51° Northeast  Level FlightAware Approximate
Fri 12:40:00 AM 75.3440 -77.9409 51° Northeast  Level FlightAware Approximate
Fri 12:41:00 AM 75.4310 -77.5043 51° Northeast  Level FlightAware Approximate
Fri 12:42:00 AM 75.5172 -77.0627 52° Northeast  Level FlightAware Approximate
Fri 12:43:00 AM 75.6025 -76.6159 52° Northeast  Level FlightAware Approximate
Fri 12:44:00 AM 75.6869 -76.1639 53° Northeast  Level FlightAware Approximate
Fri 12:45:00 AM 75.7705 -75.7066 53° Northeast  Level FlightAware Approximate
Fri 12:46:00 AM 75.8554 -75.2509 51° Northeast  Level FlightAware Approximate
Fri 12:47:00 AM 75.9421 -74.7980 52° Northeast  Level FlightAware Approximate
Fri 12:48:00 AM 76.0279 -74.3397 52° Northeast  Level FlightAware Approximate
Fri 12:49:00 AM 76.1129 -73.8757 53° Northeast  Level FlightAware Approximate
Fri 12:50:00 AM 76.1973 -73.4072 52° Northeast  Level FlightAware Approximate
Fri 12:51:00 AM 76.2822 -72.9375 53° Northeast  Level FlightAware Approximate
Fri 12:52:00 AM 76.3663 -72.4622 53° Northeast  Level FlightAware Approximate
Fri 12:53:00 AM 76.4494 -71.9811 53° Northeast  Level FlightAware Approximate
Fri 12:54:00 AM 76.5316 -71.4942 54° Northeast  Level FlightAware Approximate
Fri 12:55:00 AM 76.6128 -71.0015 54° Northeast  Level FlightAware Approximate
Fri 12:56:00 AM 76.6931 -70.5029 55° Northeast  Level FlightAware Approximate
Fri 12:57:00 AM 76.7724 -69.9984 55° Northeast  Level FlightAware Approximate
Fri 12:58:00 AM 76.8507 -69.4880 56° Northeast  Level FlightAware Approximate
Fri 12:59:00 AM 76.9280 -68.9716 56° Northeast  Level FlightAware Approximate
Fri 01:00:00 AM 77.0042 -68.4492 57° Northeast  Level FlightAware Approximate
Fri 01:01:00 AM 77.0794 -67.9208 57° Northeast  Level FlightAware Approximate
Fri 01:02:00 AM 77.1535 -67.3864 58° Northeast  Level FlightAware Approximate
Fri 01:03:00 AM 77.2266 -66.8458 58° Northeast  Level FlightAware Approximate
Fri 01:04:00 AM 77.2985 -66.2993 59° Northeast  Level FlightAware Approximate
Fri 01:05:00 AM 77.3692 -65.7467 59° Northeast  Level FlightAware Approximate
Fri 01:06:00 AM 77.4389 -65.1879 60° Northeast  Level FlightAware Approximate
Fri 01:07:00 AM 77.5073 -64.6232 61° Northeast  Level FlightAware Approximate
Fri 01:08:00 AM 77.5746 -64.0523 61° Northeast  Level FlightAware Approximate
Fri 01:09:00 AM 77.6407 -63.4754 62° Northeast  Level FlightAware Approximate
Fri 01:10:00 AM 77.7055 -62.8924 62° Northeast  Level FlightAware Approximate
Fri 01:11:00 AM 77.7691 -62.3034 63° Northeast  Level FlightAware Approximate
Fri 01:12:00 AM 77.8314 -61.7084 63° Northeast  Level FlightAware Approximate
Fri 01:13:00 AM 77.8924 -61.1074 64° Northeast  Level FlightAware Approximate
Fri 01:14:00 AM 77.9522 -60.5005 65° Northeast  Level FlightAware Approximate
Fri 01:15:00 AM 78.0103 -59.8872 66° East  Level FlightAware Approximate
Fri 01:16:00 AM 78.0659 -59.2655 66° East  Level FlightAware Approximate
Fri 01:17:00 AM 78.1201 -58.6381 67° East  Level FlightAware Approximate
Fri 01:18:00 AM 78.1729 -58.0052 68° East  Level FlightAware Approximate
Fri 01:19:00 AM 78.2243 -57.3667 68° East  Level FlightAware Approximate
Fri 01:20:00 AM 78.2742 -56.7228 69° East  Level FlightAware Approximate
Fri 01:21:00 AM 78.3227 -56.0735 69° East  Level FlightAware Approximate
Fri 01:22:00 AM 78.3697 -55.4189 70° East  Level FlightAware Approximate
Fri 01:23:00 AM 78.4153 -54.7592 71° East  Level FlightAware Approximate
Fri 01:24:00 AM 78.4593 -54.0945 71° East  Level FlightAware Approximate
Fri 01:25:00 AM 78.5018 -53.4248 72° East  Level FlightAware Approximate
Fri 01:26:00 AM 78.5428 -52.7503 73° East  Level FlightAware Approximate
Fri 01:27:00 AM 78.5822 -52.0711 73° East  Level FlightAware Approximate
Fri 01:28:00 AM 78.6201 -51.3874 74° East  Level FlightAware Approximate
Fri 01:29:00 AM 78.6563 -50.6993 75° East  Level FlightAware Approximate
Fri 01:30:00 AM 78.6910 -50.0069 75° East  Level FlightAware Approximate
Fri 01:31:00 AM 78.7240 -49.3104 76° East  Level FlightAware Approximate
Fri 01:32:00 AM 78.7554 -48.6099 77° East  Level FlightAware Approximate
Fri 01:33:00 AM 78.7851 -47.9057 77° East  Level FlightAware Approximate
Fri 01:34:00 AM 78.8132 -47.1979 78° East  Level FlightAware Approximate
Fri 01:35:00 AM 78.8397 -46.4867 79° East  Level FlightAware Approximate
Fri 01:36:00 AM 78.8644 -45.7722 79° East  Level FlightAware Approximate
Fri 01:37:00 AM 78.8875 -45.0547 80° East  Level FlightAware Approximate
Fri 01:38:00 AM 78.9088 -44.3344 81° East  Level FlightAware Approximate
Fri 01:39:00 AM 78.9284 -43.6115 82° East  Level FlightAware Approximate
Fri 01:40:00 AM 78.9463 -42.8861 82° East  Level FlightAware Approximate
Fri 01:41:00 AM 78.9625 -42.1585 83° East  Level FlightAware Approximate
Fri 01:42:00 AM 78.9769 -41.4290 84° East  Level FlightAware Approximate
Fri 01:43:00 AM 78.9896 -40.6976 84° East  Level FlightAware Approximate
Fri 01:44:00 AM 79.0012 -39.9651 80° East  Level FlightAware Approximate
Fri 01:45:00 AM 79.0241 -39.2388 80° East  Level FlightAware Approximate
Fri 01:46:00 AM 79.0454 -38.5095 81° East  Level FlightAware Approximate
Fri 01:47:00 AM 79.0649 -37.7776 82° East  Level FlightAware Approximate
Fri 01:48:00 AM 79.0827 -37.0432 82° East  Level FlightAware Approximate
Fri 01:49:00 AM 79.0987 -36.3066 83° East  Level FlightAware Approximate
Fri 01:50:00 AM 79.1130 -35.5679 84° East  Level FlightAware Approximate
Fri 01:51:00 AM 79.1255 -34.8274 85° East  Level FlightAware Approximate
Fri 01:52:00 AM 79.1362 -34.0854 85° East  Level FlightAware Approximate
Fri 01:53:00 AM 79.1451 -33.3421 86° East  Level FlightAware Approximate
Fri 01:54:00 AM 79.1523 -32.5976 87° East  Level FlightAware Approximate
Fri 01:55:00 AM 79.1576 -31.8523 87° East  Level FlightAware Approximate
Fri 01:56:00 AM 79.1612 -31.1064 88° East  Level FlightAware Approximate
Fri 01:57:00 AM 79.1629 -30.3602 89° East  Level FlightAware Approximate
Fri 01:58:00 AM 79.1629 -29.6138 90° East  Level FlightAware Approximate
Fri 01:59:00 AM 79.1611 -28.8676 90° East  Level FlightAware Approximate
Fri 02:00:00 AM 79.1574 -28.1217 91° East  Level FlightAware Approximate
Fri 02:01:00 AM 79.1520 -27.3764 92° East  Level FlightAware Approximate
Fri 02:02:00 AM 79.1448 -26.6320 93° East  Level FlightAware Approximate
Fri 02:03:00 AM 79.1358 -25.8887 93° East  Level FlightAware Approximate
Fri 02:04:00 AM 79.1251 -25.1467 94° East  Level FlightAware Approximate
Fri 02:05:00 AM 79.1125 -24.4063 95° East  Level FlightAware Approximate
Fri 02:06:00 AM 79.0982 -23.6677 95° East  Level FlightAware Approximate
Fri 02:07:00 AM 79.0821 -22.9311 96° East  Level FlightAware Approximate
Fri 02:08:00 AM 79.0643 -22.1968 97° East  Level FlightAware Approximate
Fri 02:09:00 AM 79.0447 -21.4650 98° East  Level FlightAware Approximate
Fri 02:10:00 AM 79.0234 -20.7358 98° East  Level FlightAware Approximate
Fri 02:11:00 AM 79.0003 -20.0096 99° East  Level FlightAware Approximate
Fri 02:12:00 AM 78.9892 -19.2769 94° East  Level FlightAware Approximate
Fri 02:13:00 AM 78.9764 -18.5456 95° East  Level FlightAware Approximate
Fri 02:14:00 AM 78.9619 -17.8161 96° East  Level FlightAware Approximate
Fri 02:15:00 AM 78.9457 -17.0886 96° East  Level FlightAware Approximate
Fri 02:16:00 AM 78.9278 -16.3633 97° East  Level FlightAware Approximate
Fri 02:17:00 AM 78.9081 -15.6404 98° East  Level FlightAware Approximate
Fri 02:18:00 AM 78.8867 -14.9202 98° East  Level FlightAware Approximate
Fri 02:19:00 AM 78.8636 -14.2028 99° East  Level FlightAware Approximate
Fri 02:20:00 AM 78.8388 -13.4885 100° East  Level FlightAware Approximate
Fri 02:21:00 AM 78.8123 -12.7774 101° East  Level FlightAware Approximate
Fri 02:22:00 AM 78.7841 -12.0697 101° East  Level FlightAware Approximate
Fri 02:23:00 AM 78.7543 -11.3656 102° East  Level FlightAware Approximate
Fri 02:24:00 AM 78.7229 -10.6653 103° East  Level FlightAware Approximate
Fri 02:25:00 AM 78.6898 -9.9689 103° East  Level FlightAware Approximate
Fri 02:26:00 AM 78.6551 -9.2767 104° East  Level FlightAware Approximate
Fri 02:27:00 AM 78.6188 -8.5887 105° East  Level FlightAware Approximate
Fri 02:28:00 AM 78.5809 -7.9051 105° East  Level FlightAware Approximate
Fri 02:29:00 AM 78.5414 -7.2261 106° East  Level FlightAware Approximate
Fri 02:30:00 AM 78.5004 -6.5518 107° East  Level FlightAware Approximate
Fri 02:31:00 AM 78.4578 -5.8823 107° East  Level FlightAware Approximate
Fri 02:32:00 AM 78.4137 -5.2177 108° East  Level FlightAware Approximate
Fri 02:33:00 AM 78.3681 -4.5582 109° East  Level FlightAware Approximate
Fri 02:34:00 AM 78.3210 -3.9038 109° East  Level FlightAware Approximate
Fri 02:35:00 AM 78.2725 -3.2547 110° East  Level FlightAware Approximate
Fri 02:36:00 AM 78.2225 -2.6110 111° Southeast  Level FlightAware Approximate
Fri 02:37:00 AM 78.1711 -1.9727 111° Southeast  Level FlightAware Approximate
Fri 02:38:00 AM 78.1182 -1.3399 112° Southeast  Level FlightAware Approximate
Fri 02:39:00 AM 78.0639 -0.7127 112° Southeast  Level FlightAware Approximate
Fri 02:40:00 AM 78.0083 -0.0912 113° Southeast  Level FlightAware Approximate
Fri 02:41:00 AM 77.9269 0.4540 127° Southeast  Level FlightAware Approximate
Fri 02:42:00 AM 77.8402 0.9797 128° Southeast  Level FlightAware Approximate
Fri 02:43:00 AM 77.7525 1.4981 128° Southeast  Level FlightAware Approximate
Fri 02:44:00 AM 77.6639 2.0091 129° Southeast  Level FlightAware Approximate
Fri 02:45:00 AM 77.5743 2.5130 129° Southeast  Level FlightAware Approximate
Fri 02:46:00 AM 77.4838 3.0097 130° Southeast  Level FlightAware Approximate
Fri 02:47:00 AM 77.3924 3.4993 130° Southeast  Level FlightAware Approximate
Fri 02:48:00 AM 77.3001 3.9820 131° Southeast  Level FlightAware Approximate
Fri 02:49:00 AM 77.2070 4.4578 131° Southeast  Level FlightAware Approximate
Fri 02:50:00 AM 77.1131 4.9268 132° Southeast  Level FlightAware Approximate
Fri 02:51:00 AM 77.0183 5.3891 132° Southeast  Level FlightAware Approximate
Fri 02:52:00 AM 76.9227 5.8448 133° Southeast  Level FlightAware Approximate
Fri 02:53:00 AM 76.8263 6.2939 133° Southeast  Level FlightAware Approximate
Fri 02:54:00 AM 76.7291 6.7366 134° Southeast  Level FlightAware Approximate
Fri 02:55:00 AM 76.6312 7.1730 134° Southeast  Level FlightAware Approximate
Fri 02:56:00 AM 76.5326 7.6031 134° Southeast  Level FlightAware Approximate
Fri 02:57:00 AM 76.4332 8.0271 135° Southeast  Level FlightAware Approximate
Fri 02:58:00 AM 76.3332 8.4450 135° Southeast  Level FlightAware Approximate
Fri 02:59:00 AM 76.2324 8.8569 136° Southeast  Level FlightAware Approximate
Fri 03:00:00 AM 76.1310 9.2629 136° Southeast  Level FlightAware Approximate
Fri 03:01:00 AM 76.0289 9.6631 136° Southeast  Level FlightAware Approximate
Fri 03:02:00 AM 75.9261 10.0577 137° Southeast  Level FlightAware Approximate
Fri 03:03:00 AM 75.8228 10.4466 137° Southeast  Level FlightAware Approximate
Fri 03:04:00 AM 75.7188 10.8299 138° Southeast  Level FlightAware Approximate
Fri 03:05:00 AM 75.6142 11.2078 138° Southeast  Level FlightAware Approximate
Fri 03:06:00 AM 75.5090 11.5804 138° Southeast  Level FlightAware Approximate
Fri 03:07:00 AM 75.4033 11.9477 139° Southeast  Level FlightAware Approximate
Fri 03:08:00 AM 75.2969 12.3098 139° Southeast  Level FlightAware Approximate
Fri 03:09:00 AM 75.1900 12.6668 139° Southeast  Level FlightAware Approximate
Fri 03:10:00 AM 75.0826 13.0188 140° Southeast  Level FlightAware Approximate
Fri 03:11:00 AM 74.9747 13.3658 140° Southeast  Level FlightAware Approximate
Fri 03:12:00 AM 74.8662 13.7080 140° Southeast  Level FlightAware Approximate
Fri 03:13:00 AM 74.7572 14.0455 141° Southeast  Level FlightAware Approximate
Fri 03:14:00 AM 74.6477 14.3782 141° Southeast  Level FlightAware Approximate
Fri 03:15:00 AM 74.5378 14.7064 141° Southeast  Level FlightAware Approximate
Fri 03:16:00 AM 74.4273 15.0300 142° Southeast  Level FlightAware Approximate
Fri 03:17:00 AM 74.3164 15.3491 142° Southeast  Level FlightAware Approximate
Fri 03:18:00 AM 74.2051 15.6639 142° Southeast  Level FlightAware Approximate
Fri 03:19:00 AM 74.0932 15.9744 143° Southeast  Level FlightAware Approximate
Fri 03:20:00 AM 73.9810 16.2806 143° Southeast  Level FlightAware Approximate
Fri 03:21:00 AM 73.8683 16.5827 143° Southeast  Level FlightAware Approximate
Fri 03:22:00 AM 73.7552 16.8807 144° Southeast  Level FlightAware Approximate
Fri 03:23:00 AM 73.6417 17.1746 144° Southeast  Level FlightAware Approximate
Fri 03:24:00 AM 73.5278 17.4647 144° Southeast  Level FlightAware Approximate
Fri 03:25:00 AM 73.4135 17.7508 144° Southeast  Level FlightAware Approximate
Fri 03:26:00 AM 73.2988 18.0331 145° Southeast  Level FlightAware Approximate
Fri 03:27:00 AM 73.1837 18.3117 145° Southeast  Level FlightAware Approximate
Fri 03:28:00 AM 73.0683 18.5866 145° Southeast  Level FlightAware Approximate
Fri 03:29:00 AM 72.9525 18.8579 145° Southeast  Level FlightAware Approximate
Fri 03:30:00 AM 72.8363 19.1256 146° Southeast  Level FlightAware Approximate
Fri 03:31:00 AM 72.7198 19.3898 146° Southeast  Level FlightAware Approximate
Fri 03:32:00 AM 72.6030 19.6506 146° Southeast  Level FlightAware Approximate
Fri 03:33:00 AM 72.4858 19.9080 146° Southeast  Level FlightAware Approximate
Fri 03:34:00 AM 72.3683 20.1621 147° Southeast  Level FlightAware Approximate
Fri 03:35:00 AM 72.2505 20.4130 147° Southeast  Level FlightAware Approximate
Fri 03:36:00 AM 72.1323 20.6606 147° Southeast  Level FlightAware Approximate
Fri 03:37:00 AM 72.0139 20.9051 147° Southeast  Level FlightAware Approximate
Fri 03:38:00 AM 71.8951 21.1464 148° Southeast  Level FlightAware Approximate
Fri 03:39:00 AM 71.7761 21.3848 148° Southeast  Level FlightAware Approximate
Fri 03:39:51 AM 72.2900 24.3360 148° Southeast 37,000  Level FlightAware ADS-B
Fri 03:40:00 AM 71.6568 21.6201 148° Southeast  Level FlightAware Approximate
Fri 03:40:35 AM 72.2000 24.5510 144° Southeast 37,000  Level FlightAware ADS-B
Fri 03:41:16 AM 72.1200 24.7400 144° Southeast 37,000  Level FlightAware ADS-B
Fri 03:42:01 AM 72.0310 24.9460 144° Southeast 37,000  Level FlightAware ADS-B
Fri 03:42:40 AM 71.9510 25.1310 144° Southeast 37,000  Level FlightAware ADS-B
Fri 03:43:16 AM 71.8800 25.2940 144° Southeast 37,000  Level FlightAware ADS-B
Fri 03:43:56 AM 71.8000 25.4750 145° Southeast 37,000  Level FlightAware ADS-B
Fri 03:44:42 AM 71.7050 25.6870 145° Southeast 37,000  Level FlightAware ADS-B
Fri 03:45:16 AM 71.6360 25.8380 145° Southeast 37,000  Level FlightAware ADS-B
Fri 03:45:57 AM 71.5530 26.0210 145° Southeast 37,000  Level FlightAware ADS-B
Fri 03:46:36 AM 71.4730 26.1940 145° Southeast 37,000  Level FlightAware ADS-B
Fri 03:47:22 AM 71.3790 26.3960 146° Southeast 37,000  Level FlightAware ADS-B
Fri 03:48:02 AM 71.2990 26.5640 146° Southeast 37,000  Level FlightAware ADS-B
Fri 03:48:46 AM 71.2060 26.7590 146° Southeast 37,000  Level FlightAware ADS-B
Fri 03:49:27 AM 71.1250 26.9270 146° Southeast 37,000  Level FlightAware ADS-B
Fri 03:50:17 AM 71.0200 27.1420 146° Southeast 37,000  Level FlightAware ADS-B
Fri 03:50:58 AM 70.9360 27.3100 147° Southeast 37,000  Level FlightAware ADS-B
Fri 03:51:38 AM 70.8550 27.4730 147° Southeast 37,000  Level FlightAware ADS-B
Fri 03:52:17 AM 70.7730 27.6340 147° Southeast 37,000  Level FlightAware ADS-B
Fri 03:52:58 AM 70.6900 27.7970 147° Southeast 37,000  Level FlightAware ADS-B
Fri 03:53:37 AM 70.6080 27.9570 147° Southeast 37,000  Level FlightAware ADS-B
Fri 03:54:13 AM 70.5350 28.0960 148° Southeast 37,000  Level FlightAware ADS-B
Fri 03:54:57 AM 70.4420 28.2730 147° Southeast 37,000  Level FlightAware ADS-B
Fri 03:55:33 AM 70.3680 28.4120 148° Southeast 37,000  Level FlightAware ADS-B
Fri 03:56:22 AM 70.2650 28.6040 148° Southeast 37,000  Level FlightAware ADS-B
Fri 03:57:03 AM 70.1790 28.7610 148° Southeast 37,000  Level FlightAware ADS-B
Fri 03:57:43 AM 70.0980 28.9090 148° Southeast 37,000  Level FlightAware ADS-B
Fri 03:58:27 AM 70.0040 29.0790 148° Southeast 37,000  Level FlightAware ADS-B
Fri 03:59:03 AM 69.9300 29.2090 149° Southeast 37,000  Level FlightAware ADS-B
Fri 03:59:43 AM 69.8440 29.3630 148° Southeast 503 579 37,000  Level FlightAware ADS-B
Fri 04:00:26 AM 69.7530 29.5210 149° Southeast 503 579 37,000  Level FlightAware ADS-B
Fri 04:00:57 AM 69.6900 29.6310 149° Southeast 37,000  Level FlightAware ADS-B
Fri 04:01:33 AM 69.6160 29.7580 149° Southeast 37,000  Level FlightAware ADS-B
Fri 04:02:19 AM 69.5230 29.9160 149° Southeast 37,000  Level FlightAware ADS-B
Fri 04:03:15 AM 69.4030 30.1370 147° Southeast 504 580 37,000  Level FlightAware ADS-B
Fri 04:03:55 AM 69.3270 30.3060 142° Southeast 500 575 37,000  Level FlightAware ADS-B
Fri 04:04:33 AM 69.2590 30.4570 142° Southeast 504 580 37,000  Level FlightAware ADS-B
Fri 04:05:12 AM 69.1770 30.6390 142° Southeast 507 583 37,000  Level FlightAware ADS-B
Fri 04:05:58 AM 69.0920 30.8260 142° Southeast 504 580 37,000  Level FlightAware ADS-B
Fri 04:06:33 AM 69.0210 30.9800 142° Southeast 502 578 37,000  Level FlightAware ADS-B
Fri 04:07:11 AM 68.9670 31.1400 133° Southeast 501 577 37,000  Level FlightAware ADS-B
Fri 04:07:47 AM 68.9220 31.2930 129° Southeast 501 577 37,000  Level FlightAware ADS-B
Fri 04:08:35 AM 68.8630 31.4970 129° Southeast 501 577 37,000  Level FlightAware ADS-B
Fri 04:09:11 AM 68.8180 31.6500 129° Southeast 501 577 37,000  Level FlightAware ADS-B
Fri 04:09:59 AM 68.7590 31.8530 129° Southeast 501 577 37,000  Level FlightAware ADS-B
Fri 04:10:59 AM 68.6840 32.1060 129° Southeast 501 577 37,000  Level FlightAware ADS-B
Fri 04:11:30 AM 68.6460 32.2360 129° Southeast 501 577 37,000  Level FlightAware ADS-B
Fri 04:12:18 AM 68.5860 32.4380 129° Southeast 501 577 37,000  Level FlightAware ADS-B
Fri 04:12:54 AM 68.5420 32.5890 128° Southeast 501 577 37,000  Level FlightAware ADS-B
Fri 04:13:42 AM 68.4820 32.7890 129° Southeast 501 577 37,000  Level FlightAware ADS-B
Fri 04:14:18 AM 68.4370 32.9390 129° Southeast 501 577 37,000  Level FlightAware ADS-B
Fri 04:15:06 AM 68.3780 33.1390 129° Southeast 501 577 37,000  Level FlightAware ADS-B
Fri 04:15:42 AM 68.3330 33.2880 129° Southeast 501 577 37,000  Level FlightAware ADS-B
Fri 04:16:31 AM 68.2720 33.4910 129° Southeast 501 577 37,000  Level FlightAware ADS-B
Fri 04:19:00 AM 67.9300 33.6709 169° South  Level Estimated
Fri 04:20:00 AM 67.7923 33.7418 169° South  Level Estimated
Fri 04:21:00 AM 67.6545 33.8120 169° South  Level Estimated
Fri 04:22:00 AM 67.5167 33.8813 169° South  Level Estimated
Fri 04:23:00 AM 67.3788 33.9498 169° South  Level Estimated
Fri 04:24:00 AM 67.2409 34.0175 169° South  Level Estimated
Fri 04:24:40 AM 66.5710 33.4350 169° South 37,000  Level FlightAware ADS-B
Fri 04:27:00 AM 66.2518 33.6176 167° South  Level Estimated
Fri 04:28:00 AM 66.1150 33.6945 167° South  Level Estimated
Fri 04:29:00 AM 65.9781 33.7705 167° South  Level Estimated
Fri 04:30:00 AM 65.8411 33.8458 167° South  Level Estimated
Fri 04:31:00 AM 65.7042 33.9202 167° South  Level Estimated
Fri 04:32:00 AM 65.5672 33.9938 167° South  Level Estimated
Fri 04:33:00 AM 65.4301 34.0667 168° South  Level Estimated
Fri 04:34:00 AM 65.2931 34.1388 168° South  Level Estimated
Fri 04:35:00 AM 65.1560 34.2102 168° South  Level Estimated
Fri 04:36:00 AM 65.0188 34.2808 168° South  Level Estimated
Fri 04:37:00 AM 64.8817 34.3507 168° South  Level Estimated
Fri 04:38:00 AM 64.7444 34.4199 168° South  Level Estimated
Fri 04:39:00 AM 64.6072 34.4884 168° South  Level Estimated
Fri 04:40:00 AM 64.4699 34.5563 168° South  Level Estimated
Fri 04:40:09 AM 64.4160 34.9000 168° South 491 565 37,000  Level FlightAware ADS-B
Fri 04:40:49 AM 64.3220 34.9710 162° South 488 562 37,000  Level FlightAware ADS-B
Fri 04:41:30 AM 64.2230 35.0460 162° South 488 562 37,000  Level FlightAware ADS-B
Fri 04:42:16 AM 64.1180 35.1240 162° South 486 559 37,000  Level FlightAware ADS-B
Fri 04:43:01 AM 64.0220 35.1950 162° South 492 566 37,000  Level FlightAware ADS-B
Fri 04:43:35 AM 63.9330 35.2600 162° South 491 565 37,000  Level FlightAware ADS-B
Fri 04:44:15 AM 63.8460 35.3240 162° South 491 565 37,000  Level FlightAware ADS-B
Fri 04:44:55 AM 63.7520 35.3920 162° South 487 560 37,000  Level FlightAware ADS-B
Fri 04:45:42 AM 63.6530 35.4620 163° South 486 559 37,000  Level FlightAware ADS-B
Fri 04:46:21 AM 63.5570 35.5310 162° South 492 566 37,000  Level FlightAware ADS-B
Fri 04:47:05 AM 63.4590 35.6000 163° South 494 568 37,000  Level FlightAware ADS-B
Fri 04:47:45 AM 63.3670 35.6650 162° South 489 563 37,000  Level FlightAware ADS-B
Fri 04:48:25 AM 63.2760 35.7280 163° South 484 557 37,000  Level FlightAware ADS-B
Fri 04:49:10 AM 63.1770 35.7980 162° South 481 554 37,000  Level FlightAware ADS-B
Fri 04:49:50 AM 63.0900 35.8580 163° South 483 556 37,000  Level FlightAware ADS-B
Fri 04:50:35 AM 62.9880 35.9290 162° South 479 551 37,000  Level FlightAware ADS-B
Fri 04:51:15 AM 62.8950 35.9920 163° South 479 551 37,000  Level FlightAware ADS-B
Fri 04:51:55 AM 62.8100 36.0500 163° South 478 550 37,000  Level FlightAware ADS-B
Fri 04:52:40 AM 62.7040 36.1230 162° South 482 555 37,000  Level FlightAware ADS-B
Fri 04:53:21 AM 62.6130 36.1830 163° South 483 556 37,000  Level FlightAware ADS-B
Fri 04:54:02 AM 62.5210 36.2450 163° South 486 559 37,000  Level FlightAware ADS-B
Fri 04:54:45 AM 62.4240 36.3090 163° South 481 554 37,000  Level FlightAware ADS-B
Fri 04:55:30 AM 62.3230 36.3760 163° South 482 555 37,000  Level FlightAware ADS-B
Fri 04:56:10 AM 62.2280 36.4380 163° South 483 556 37,000  Level FlightAware ADS-B
Fri 04:56:50 AM 62.1440 36.4920 163° South 480 552 37,000  Level FlightAware ADS-B
Fri 04:57:30 AM 62.0460 36.5560 163° South 482 555 37,000  Level FlightAware ADS-B
Fri 04:58:15 AM 61.9460 36.6200 163° South 484 557 37,000  Level FlightAware ADS-B
Fri 04:59:00 AM 61.8420 36.6870 163° South 483 556 37,000  Level FlightAware ADS-B
Fri 04:59:40 AM 61.7520 36.7440 163° South 488 562 37,000  Level FlightAware ADS-B
Fri 05:00:15 AM 61.6720 36.7940 163° South 484 557 37,000  Level FlightAware ADS-B
Fri 05:00:55 AM 61.5890 36.8450 164° South 483 556 37,000  Level FlightAware ADS-B
Fri 05:01:40 AM 61.4790 36.9130 164° South 482 555 37,000  Level FlightAware ADS-B
Fri 05:02:15 AM 61.4000 36.9620 163° South 481 554 37,000  Level FlightAware ADS-B
Fri 05:02:55 AM 61.3100 37.0170 164° South 482 555 37,000  Level FlightAware ADS-B
Fri 05:03:40 AM 61.2100 37.0790 163° South 483 556 37,000  Level FlightAware ADS-B
Fri 05:04:20 AM 61.1230 37.1320 164° South 484 557 37,000  Level FlightAware ADS-B
Fri 05:05:00 AM 61.0310 37.1880 164° South 485 558 37,000  Level FlightAware ADS-B
Fri 05:05:45 AM 60.9360 37.2450 164° South 485 558 37,000  Level FlightAware ADS-B
Fri 05:06:43 AM 60.8140 37.3370 160° South 485 558 37,000  Level FlightAware ADS-B
Fri 05:07:19 AM 60.7520 37.3990 154° Southeast 485 558 37,000  Level FlightAware ADS-B
Fri 05:07:55 AM 60.6900 37.4600 154° Southeast 485 558 37,000  Level FlightAware ADS-B
Fri 05:08:43 AM 60.6080 37.5420 154° Southeast 485 558 37,000  Level FlightAware ADS-B
Fri 05:09:50 AM 60.3850 37.5700 176° South 482 555 37,000  Level FlightAware ADS-B
Fri 05:10:31 AM 60.2970 37.6210 164° South 484 557 37,000  Level FlightAware ADS-B
Fri 05:10:55 AM 60.2370 37.6550 164° South 481 554 37,000  Level FlightAware ADS-B
Fri 05:11:51 AM 60.1430 37.7520 153° Southeast 481 554 37,000  Level FlightAware ADS-B
Fri 05:12:30 AM 60.0310 37.7710 175° South 486 559 37,000  Level FlightAware ADS-B
Fri 05:13:11 AM 59.9540 37.8260 160° South 484 557 37,000  Level FlightAware ADS-B
Fri 05:13:59 AM 59.8710 37.9000 156° South 484 557 37,000 -265 Level FlightAware ADS-B
Fri 05:14:06 AM 59.8240 37.8500 208° Southwest 37,000 -337 Level FlightAware ADS-B
Fri 05:16:00 AM 59.5574 37.8538 180° South  Level Estimated
Fri 05:16:20 AM 59.5270 37.9540 180° South 36,200  Level FlightAware ADS-B
Fri 05:16:57 AM 59.4460 37.9820 170° South 480 552 36,000 -148 Descending FlightAware ADS-B
Fri 05:17:41 AM 59.3460 38.0170 170° South 483 556 36,000  Level FlightAware ADS-B
Fri 05:18:24 AM 59.2500 38.0390 173° South 482 555 36,000  Level FlightAware ADS-B
Fri 05:19:14 AM 59.1400 38.0340 181° South 485 558 36,000  Level FlightAware ADS-B
Fri 05:19:54 AM 59.0570 38.0280 182° South 483 556 36,000  Level FlightAware ADS-B
Fri 05:20:33 AM 58.9660 38.0210 182° South 482 555 36,000  Level FlightAware ADS-B
Fri 05:21:13 AM 58.8730 38.0140 182° South 483 556 36,000  Level FlightAware ADS-B
Fri 05:21:53 AM 58.7930 38.0090 182° South 484 557 36,000  Level FlightAware ADS-B
Fri 05:22:33 AM 58.6940 38.0000 183° South 486 559 36,000  Level FlightAware ADS-B
Fri 05:23:13 AM 58.6060 37.9860 185° South 485 558 36,000  Level FlightAware ADS-B
Fri 05:23:54 AM 58.5110 37.9690 185° South 486 559 36,000  Level FlightAware ADS-B
Fri 05:24:35 AM 58.4230 37.9530 185° South 484 557 36,000  Level FlightAware ADS-B
Fri 05:25:15 AM 58.3290 37.9360 185° South 486 559 36,000  Level FlightAware ADS-B
Fri 05:25:55 AM 58.2400 37.9200 185° South 483 556 36,000 -133 Level FlightAware ADS-B
Fri 05:26:45 AM 58.1280 37.9070 184° South 478 550 35,800 -467 Descending FlightAware ADS-B
Fri 05:27:25 AM 58.0390 37.9220 175° South 480 552 35,300 -825 Descending FlightAware ADS-B
Fri 05:28:05 AM 57.9500 37.9370 175° South 480 552 34,700 -900 Descending FlightAware ADS-B
Fri 05:28:45 AM 57.8630 37.9520 175° South 479 551 34,100 -900 Descending FlightAware ADS-B
Fri 05:29:25 AM 57.7710 37.9670 175° South 481 554 33,500 -1,125 Descending FlightAware ADS-B
Fri 05:30:05 AM 57.6840 37.9820 175° South 482 555 32,600 -1,341 Descending FlightAware ADS-B
Fri 05:30:50 AM 57.5870 37.9980 175° South 477 549 31,600 -1,624 Descending FlightAware ADS-B
Fri 05:31:30 AM 57.4970 38.0180 173° South 467 537 30,300 -1,157 Descending FlightAware ADS-B
Fri 05:32:13 AM 57.4040 38.0050 184° South 467 537 30,000 -217 Descending FlightAware ADS-B
Fri 05:32:53 AM 57.3300 37.9430 204° Southwest 466 536 30,000  Level FlightAware ADS-B
Fri 05:33:29 AM 57.2610 37.8710 209° Southwest 468 539 30,000  Level FlightAware ADS-B
Fri 05:34:13 AM 57.1800 37.7860 210° Southwest 466 536 30,000  Level FlightAware ADS-B
Fri 05:34:53 AM 57.1070 37.7200 206° Southwest 466 536 30,000 -316 Level FlightAware ADS-B
Fri 05:35:29 AM 57.0310 37.6840 194° South 462 532 29,600 -1,403 Descending FlightAware ADS-B
Fri 05:36:10 AM 56.9450 37.6500 192° South 452 520 28,200 -1,500 Descending FlightAware ADS-B
Fri 05:36:53 AM 56.8610 37.6170 192° South 424 488 27,500 -1,215 Descending FlightAware ADS-B
Fri 05:37:29 AM 56.7930 37.5900 192° South 415 478 26,600 -1,761 Descending FlightAware ADS-B
Fri 05:38:25 AM 56.6860 37.5780 184° South 405 466 24,800 -1,563 Descending FlightAware ADS-B
Fri 05:39:05 AM 56.6120 37.6030 169° South 388 447 24,100 -1,429 Descending FlightAware ADS-B
Fri 05:39:49 AM 56.5350 37.6310 169° South 384 442 22,800 -1,643 Descending FlightAware ADS-B
Fri 05:40:29 AM 56.4640 37.6550 169° South 376 433 21,800 -1,571 Descending FlightAware ADS-B
Fri 05:41:13 AM 56.3910 37.6810 169° South 370 426 20,600 -1,643 Descending FlightAware ADS-B
Fri 05:41:53 AM 56.3250 37.7030 170° South 364 419 19,500 -1,658 Descending FlightAware ADS-B
Fri 05:42:29 AM 56.2650 37.7230 170° South 360 414 18,500 -1,184 Descending FlightAware ADS-B
Fri 05:43:09 AM 56.1980 37.7460 169° South 359 413 18,000 -375 Descending FlightAware ADS-B
Fri 05:43:49 AM 56.1440 37.7650 169° South 358 412 18,000  Level FlightAware ADS-B
Fri 05:44:32 AM 56.0650 37.7910 170° South 356 410 18,000  Level FlightAware ADS-B
Fri 05:45:17 AM 55.9960 37.8150 169° South 355 409 18,000 -282 Level FlightAware ADS-B
Fri 05:45:57 AM 55.9360 37.8350 169° South 329 379 17,600 -1,260 Descending FlightAware ADS-B
Fri 05:46:57 AM 55.8440 37.8620 171° South 321 369 15,900 -1,067 Descending FlightAware ADS-B
Fri 05:47:27 AM 55.7990 37.8540 186° South 324 373 16,000 67 Climbing FlightAware ADS-B
Fri 05:48:27 AM 55.7080 37.8710 174° South 320 368 16,000  Level FlightAware ADS-B
Fri 05:49:07 AM 55.6540 37.8840 172° South 320 368 16,000 -75 Level FlightAware ADS-B
Fri 05:49:47 AM 55.6080 37.7980 227° Southwest 282 325 15,900 -436 Descending FlightAware ADS-B
Fri 05:50:02 AM 55.5880 37.8090 163° South 279 321 15,600 -1,200 Descending FlightAware ADS-B
Fri 05:50:17 AM 55.5750 37.8280 140° Southeast 278 320 15,300 -1,437 Descending FlightAware ADS-B
Fri 05:51:13 AM 55.5280 37.9290 129° Southeast 279 321 13,900 -1,000 Descending FlightAware ADS-B
Fri 05:51:53 AM 55.4840 37.9840 145° Southeast 276 318 13,700 -643 Descending FlightAware ADS-B
Fri 05:52:37 AM 55.4400 38.0520 139° Southeast 270 311 13,000 -500 Descending FlightAware ADS-B
Fri 05:53:17 AM 55.3990 38.1020 145° Southeast 271 312 13,000 -500 Level FlightAware ADS-B
Fri 05:54:01 AM 55.3520 38.1570 146° Southeast 268 308 12,300 -1,071 Descending FlightAware ADS-B
Fri 05:54:41 AM 55.3090 38.2060 147° Southeast 266 306 11,500 -1,000 Descending FlightAware ADS-B
Fri 05:55:25 AM 55.2670 38.2620 143° Southeast 264 304 10,900 -929 Descending FlightAware ADS-B
Fri 05:56:05 AM 55.2280 38.3200 140° Southeast 261 300 10,200 -711 Descending FlightAware ADS-B
Fri 05:56:41 AM 55.1940 38.3700 140° Southeast 259 298 10,000 -150 Descending FlightAware ADS-B
Fri 05:57:25 AM 55.1540 38.4270 141° Southeast 258 297 10,000 -338 Level FlightAware ADS-B
Fri 05:57:52 AM 55.1270 38.4650 141° Southeast 254 292 9,600 -1,125 Descending FlightAware ADS-B
Fri 05:58:13 AM 55.1080 38.4910 142° Southeast 254 292 9,100 -1,371 Descending FlightAware ADS-B
Fri 05:58:27 AM 55.0900 38.5000 164° South 253 291 8,800 -1,227 Descending FlightAware ADS-B
Fri 05:58:57 AM 55.0570 38.4900 190° South 249 287 8,200 -1,350 Descending FlightAware ADS-B
Fri 05:59:07 AM 55.0490 38.4810 213° Southwest 244 281 7,900 -1,680 Descending FlightAware ADS-B
Fri 05:59:22 AM 55.0380 38.4510 237° Southwest 225 259 7,500 -1,467 Descending FlightAware ADS-B
Fri 05:59:52 AM 55.0440 38.4040 283° West 205 236 6,800 -1,393 Descending FlightAware ADS-B
Fri 06:00:18 AM 55.0550 38.3690 299° West 205 236 6,200 -982 Descending FlightAware ADS-B
Fri 06:00:47 AM 55.0710 38.3270 304° West 219 252 5,900 -610 Descending FlightAware ADS-B
Fri 06:01:17 AM 55.0950 38.2980 325° Northwest 217 250 5,600 -545 Descending FlightAware ADS-B
Fri 06:01:42 AM 55.1150 38.2750 327° Northwest 220 253 5,400 -436 Descending FlightAware ADS-B
Fri 06:02:12 AM 55.1390 38.2460 325° Northwest 204 235 5,200 -500 Descending FlightAware ADS-B
Fri 06:02:42 AM 55.1600 38.2210 326° Northwest 197 227 4,900 -600 Descending FlightAware ADS-B
Fri 06:02:52 AM 55.1680 38.2110 324° Northwest 197 227 4,800 -857 Descending FlightAware ADS-B
Fri 06:03:17 AM 55.1860 38.1890 325° Northwest 196 226 4,400 -840 Descending FlightAware ADS-B
Fri 06:03:42 AM 55.2030 38.1680 325° Northwest 200 230 4,100 -873 Descending FlightAware ADS-B
Fri 06:04:12 AM 55.2260 38.1410 326° Northwest 195 224 3,600 -900 Descending FlightAware ADS-B
Fri 06:04:42 AM 55.2470 38.1150 325° Northwest 195 224 3,200 -840 Descending FlightAware ADS-B
Fri 06:05:02 AM 55.2620 38.0980 327° Northwest 189 217 2,900 -764 Descending FlightAware ADS-B
Fri 06:05:37 AM 55.2850 38.0700 325° Northwest 180 207 2,500 -700 Descending FlightAware ADS-B
Fri 06:06:02 AM 55.2990 38.0520 324° Northwest 159 183 2,200 -327 Descending FlightAware ADS-B
Fri 06:06:32 AM 55.3180 38.0300 327° Northwest 161 185 2,200 100 Level FlightAware ADS-B
Fri 06:07:02 AM 55.3340 38.0090 323° Northwest 150 173 2,300 -218 Climbing FlightAware ADS-B
Fri 06:07:27 AM 55.3480 37.9930 327° Northwest 144 166 2,000 -900 Descending FlightAware ADS-B
Fri 06:08:02 AM 55.3640 37.9710 322° Northwest 142 163 1,400 -867 Descending FlightAware ADS-B
Fri 06:08:57 AM 55.3930 37.9320 323° Northwest 141 162 700 -600 Descending FlightAware ADS-B
Fri 06:09:22 AM 55.4040 37.9140 317° Northwest 141 162 600 -120 Descending FlightAware ADS-B
Fri 06:09:47 AM 55.4140 37.8970 316° Northwest 141 162 600  Level FlightAware ADS-B
Fri 06:12:00 AM 55.4000 37.9000 161° South  Level FlightAware Approximate
Fri 06:13:00 AM 55.4088 37.9063 161° South  Level Estimated
Fri 06:14:00 AM 55.4088 37.9063 161° South  Level Estimated
Fri 06:15:00 AM 55.4088 37.9063 161° South  Level Estimated
Fri 06:16:00 AM 55.4088 37.9063 161° South  Level Estimated
Fri 06:17:00 AM 55.4088 37.9063 161° South  Level Estimated
Fri 06:18:00 AM 55.4088 37.9063 161° South  Level Estimated
Fri 06:19:00 AM 55.4088 37.9063 161° South  Level Estimated

Login

Don't have an account? Register now (free) for customized features, flight alerts, and more!